createdAt,value
2019-03-30T00:01:52.009Z,100.00
2019-03-30T00:04:23.335Z,100.00
2019-03-30T00:06:54.498Z,100.00
2019-03-30T00:09:25.816Z,100.00
2019-03-30T00:11:58.001Z,100.00
2019-03-30T00:14:29.315Z,99.85
2019-03-30T00:17:00.425Z,99.68
2019-03-30T00:19:35.069Z,99.51
2019-03-30T00:22:04.580Z,99.46
2019-03-30T00:24:36.311Z,99.44
2019-03-30T00:27:07.619Z,99.83
2019-03-30T00:29:38.822Z,100.00
2019-03-30T00:32:10.349Z,100.00
2019-03-30T00:34:41.505Z,100.00
2019-03-30T00:37:12.901Z,100.00
2019-03-30T00:39:44.003Z,100.00
2019-03-30T00:42:15.204Z,99.70
2019-03-30T00:44:46.376Z,99.45
2019-03-30T00:47:17.559Z,99.42
2019-03-30T00:49:50.125Z,99.56
2019-03-30T00:52:21.551Z,99.84
2019-03-30T00:54:52.851Z,100.00
2019-03-30T00:57:23.995Z,100.00
2019-03-30T00:59:55.170Z,100.00
2019-03-30T01:02:26.364Z,100.00
2019-03-30T01:04:57.534Z,100.00
2019-03-30T01:07:28.790Z,100.00
2019-03-30T01:09:59.985Z,100.00
2019-03-30T01:12:31.147Z,100.00
2019-03-30T01:15:02.389Z,99.87
2019-03-30T01:17:33.590Z,99.88
2019-03-30T01:20:05.448Z,100.00
2019-03-30T01:22:36.713Z,100.00
2019-03-30T01:25:08.828Z,100.00
2019-03-30T01:27:40.110Z,100.00
2019-03-30T01:30:22.420Z,100.00
2019-03-30T01:32:44.799Z,100.00
2019-03-30T01:35:16.941Z,100.00
2019-03-30T01:37:48.434Z,100.00
2019-03-30T01:40:19.704Z,100.00
2019-03-30T01:42:50.821Z,100.00
2019-03-30T01:45:21.968Z,100.00
2019-03-30T01:47:53.234Z,100.00
2019-03-30T01:50:24.449Z,100.00
2019-03-30T01:52:55.769Z,100.00
2019-03-30T01:55:26.928Z,100.00
2019-03-30T01:57:58.044Z,100.00
2019-03-30T02:00:29.230Z,100.00
2019-03-30T02:03:00.570Z,100.00
2019-03-30T02:05:31.719Z,100.00
2019-03-30T02:08:02.880Z,100.00
2019-03-30T02:10:44.180Z,100.00
2019-03-30T02:13:16.134Z,100.00
2019-03-30T02:15:47.378Z,100.00
2019-03-30T02:18:18.628Z,100.00
2019-03-30T02:20:50.331Z,100.00
2019-03-30T02:23:21.744Z,100.00
2019-03-30T02:25:53.183Z,100.00
2019-03-30T02:28:24.450Z,100.00
2019-03-30T02:30:55.661Z,100.00
2019-03-30T02:33:26.818Z,100.00
2019-03-30T02:35:57.980Z,100.00
2019-03-30T02:38:29.501Z,100.00
2019-03-30T02:41:00.679Z,100.00
2019-03-30T02:43:31.907Z,100.00
2019-03-30T02:46:03.120Z,100.00
2019-03-30T02:48:35.092Z,100.00
2019-03-30T02:51:06.596Z,100.00
2019-03-30T02:53:37.755Z,100.00
2019-03-30T02:56:09.080Z,100.00
2019-03-30T02:58:40.196Z,100.00
2019-03-30T03:01:11.709Z,100.00
2019-03-30T03:03:43.196Z,100.00
2019-03-30T03:06:14.649Z,100.00
2019-03-30T03:08:45.718Z,100.00
2019-03-30T03:11:16.999Z,100.00
2019-03-30T03:13:48.360Z,100.00
2019-03-30T03:16:19.547Z,100.00
2019-03-30T03:18:50.784Z,100.00
2019-03-30T03:21:22.193Z,100.00
2019-03-30T03:23:53.373Z,100.00
2019-03-30T03:26:24.602Z,100.00
2019-03-30T03:28:55.980Z,100.00
2019-03-30T03:31:27.571Z,100.00
2019-03-30T03:33:59.050Z,100.00
2019-03-30T03:36:30.311Z,100.00
2019-03-30T03:39:01.540Z,100.00
2019-03-30T03:41:32.660Z,100.00
2019-03-30T03:44:03.895Z,100.00
2019-03-30T03:46:35.180Z,100.00
2019-03-30T03:49:06.515Z,100.00
2019-03-30T03:51:38.072Z,100.00
2019-03-30T03:54:09.409Z,100.00
2019-03-30T03:56:41.673Z,100.00
2019-03-30T03:59:14.409Z,100.00
2019-03-30T04:01:47.005Z,100.00
2019-03-30T04:04:19.731Z,100.00
2019-03-30T04:06:53.379Z,100.00
2019-03-30T04:09:27.680Z,100.00
2019-03-30T04:12:01.040Z,100.00
2019-03-30T04:14:34.439Z,100.00
2019-03-30T04:17:05.655Z,100.00
2019-03-30T04:19:36.814Z,100.00
2019-03-30T04:22:08.080Z,100.00
2019-03-30T04:24:39.429Z,100.00
2019-03-30T04:27:10.686Z,100.00
2019-03-30T04:29:41.846Z,100.00
2019-03-30T04:32:13.045Z,100.00
2019-03-30T04:34:44.199Z,100.00
2019-03-30T04:37:15.401Z,100.00
2019-03-30T04:39:46.919Z,100.00
2019-03-30T04:42:18.324Z,100.00
2019-03-30T04:44:49.614Z,100.00
2019-03-30T04:47:21.014Z,100.00
2019-03-30T04:49:52.301Z,100.00
2019-03-30T04:52:23.685Z,100.00
2019-03-30T04:54:54.999Z,100.00
2019-03-30T04:57:26.794Z,100.00
2019-03-30T04:59:58.324Z,100.00
2019-03-30T05:02:29.612Z,100.00
2019-03-30T05:05:01.570Z,100.00
2019-03-30T05:07:32.716Z,100.00
2019-03-30T05:10:04.488Z,100.00
2019-03-30T05:12:36.114Z,100.00
2019-03-30T05:15:07.932Z,100.00
2019-03-30T05:17:47.370Z,100.00
2019-03-30T05:20:12.510Z,100.00
2019-03-30T05:22:43.764Z,100.00
2019-03-30T05:25:15.030Z,100.00
2019-03-30T05:27:46.359Z,100.00
2019-03-30T05:30:17.774Z,100.00
2019-03-30T05:32:49.585Z,100.00
2019-03-30T05:35:21.007Z,100.00
2019-03-30T05:37:52.495Z,95.22
2019-03-30T05:40:24.112Z,92.48
2019-03-30T05:42:55.634Z,91.25
2019-03-30T05:45:27.045Z,87.76
2019-03-30T05:47:58.524Z,86.55
2019-03-30T05:50:30.292Z,86.50
2019-03-30T05:53:01.630Z,84.19
2019-03-30T05:55:32.862Z,81.27
2019-03-30T05:58:04.165Z,80.28
2019-03-30T06:00:35.793Z,80.46
2019-03-30T06:03:07.189Z,78.82
2019-03-30T06:05:38.584Z,77.89
2019-03-30T06:08:10.155Z,74.36
2019-03-30T06:10:41.363Z,74.12
2019-03-30T06:13:12.871Z,73.28
2019-03-30T06:15:44.463Z,69.00
2019-03-30T06:18:15.724Z,68.60
2019-03-30T06:20:47.114Z,67.87
2019-03-30T06:23:18.360Z,66.92
2019-03-30T06:25:49.732Z,66.68
2019-03-30T06:28:20.971Z,64.36
2019-03-30T06:30:52.230Z,64.74
2019-03-30T06:33:23.447Z,64.37
2019-03-30T06:35:54.732Z,62.63
2019-03-30T06:38:26.008Z,59.61
2019-03-30T06:40:57.323Z,57.83
2019-03-30T06:43:28.704Z,56.18
2019-03-30T06:45:59.785Z,56.30
2019-03-30T06:48:31.018Z,55.57
2019-03-30T06:51:02.210Z,56.48
2019-03-30T06:53:33.408Z,54.20
2019-03-30T06:56:04.630Z,53.98
2019-03-30T06:58:35.808Z,52.20
2019-03-30T07:01:07.458Z,48.61
2019-03-30T07:03:38.908Z,48.92
2019-03-30T07:06:10.335Z,46.84
2019-03-30T07:08:44.084Z,44.60
2019-03-30T07:11:21.429Z,44.52
2019-03-30T07:13:49.274Z,45.01
2019-03-30T07:16:20.606Z,45.56
2019-03-30T07:18:53.863Z,45.06
2019-03-30T07:21:25.064Z,43.96
2019-03-30T07:23:56.178Z,42.17
2019-03-30T07:26:27.420Z,43.49
2019-03-30T07:28:58.567Z,44.00
2019-03-30T07:31:29.894Z,44.03
2019-03-30T07:34:01.158Z,44.46
2019-03-30T07:36:32.438Z,44.06
2019-03-30T07:39:04.448Z,41.33
2019-03-30T07:41:35.679Z,39.75
2019-03-30T07:44:08.708Z,39.36
2019-03-30T07:46:39.917Z,40.13
2019-03-30T07:49:11.134Z,38.32
2019-03-30T07:51:42.278Z,36.89
2019-03-30T07:54:13.541Z,36.05
2019-03-30T07:56:44.711Z,36.17
2019-03-30T07:59:15.991Z,35.67
2019-03-30T08:01:47.350Z,34.35
2019-03-30T08:04:18.484Z,34.29
2019-03-30T08:06:49.770Z,33.73
2019-03-30T08:09:21.449Z,33.13
2019-03-30T08:11:52.809Z,32.48
2019-03-30T08:14:24.129Z,34.22
2019-03-30T08:16:55.498Z,33.81
2019-03-30T08:19:26.761Z,34.33
2019-03-30T08:21:58.054Z,32.54
2019-03-30T08:24:29.220Z,32.04
2019-03-30T08:27:00.539Z,33.04
2019-03-30T08:29:31.875Z,33.38
2019-03-30T08:32:03.015Z,34.22
2019-03-30T08:34:34.253Z,32.98
2019-03-30T08:37:05.684Z,33.48
2019-03-30T08:39:36.745Z,33.38
2019-03-30T08:42:08.030Z,32.92
2019-03-30T08:44:39.234Z,32.57
2019-03-30T08:47:10.384Z,34.34
2019-03-30T08:49:41.488Z,30.96
2019-03-30T08:52:12.764Z,30.77
2019-03-30T08:54:44.055Z,30.81
2019-03-30T08:57:15.313Z,28.28
2019-03-30T08:59:46.638Z,28.24
2019-03-30T09:02:17.859Z,28.77
2019-03-30T09:04:49.180Z,28.07
2019-03-30T09:07:20.491Z,25.46
2019-03-30T09:09:52.084Z,26.85
2019-03-30T09:12:23.434Z,27.74
2019-03-30T09:14:54.710Z,28.97
2019-03-30T09:17:26.024Z,29.59
2019-03-30T09:19:57.204Z,27.91
2019-03-30T09:22:28.559Z,28.80
2019-03-30T09:24:59.864Z,28.47
2019-03-30T09:27:31.221Z,28.06
2019-03-30T09:30:02.504Z,29.69
2019-03-30T09:32:33.664Z,29.22
2019-03-30T09:35:05.281Z,28.39
2019-03-30T09:37:36.643Z,26.48
2019-03-30T09:40:08.848Z,25.51
2019-03-30T09:42:40.414Z,24.71
2019-03-30T09:45:11.964Z,24.64
2019-03-30T09:47:43.203Z,22.52
2019-03-30T09:50:14.898Z,25.26
2019-03-30T09:52:46.232Z,22.72
2019-03-30T09:55:17.540Z,22.82
2019-03-30T09:57:48.944Z,26.00
2019-03-30T10:00:20.420Z,24.40
2019-03-30T10:02:51.678Z,21.66
2019-03-30T10:05:22.975Z,26.37
2019-03-30T10:07:54.303Z,23.98
2019-03-30T10:10:25.843Z,26.96
2019-03-30T10:12:57.202Z,27.15
2019-03-30T10:15:28.468Z,25.05
2019-03-30T10:17:59.750Z,22.20
2019-03-30T10:20:31.007Z,23.36
2019-03-30T10:23:02.360Z,22.15
2019-03-30T10:25:33.723Z,22.59
2019-03-30T10:28:05.017Z,23.46
2019-03-30T10:30:36.410Z,23.74
2019-03-30T10:33:07.568Z,26.31
2019-03-30T10:35:39.010Z,25.93
2019-03-30T10:38:10.305Z,24.17
2019-03-30T10:40:41.505Z,24.63
2019-03-30T10:43:12.715Z,27.48
2019-03-30T10:45:43.940Z,26.32
2019-03-30T10:48:15.238Z,25.56
2019-03-30T10:50:46.451Z,26.11
2019-03-30T10:53:17.824Z,23.84
2019-03-30T10:55:49.398Z,25.01
2019-03-30T10:58:20.697Z,23.58
2019-03-30T11:00:51.959Z,23.68
2019-03-30T11:03:23.185Z,25.65
2019-03-30T11:05:54.563Z,27.17
2019-03-30T11:08:25.728Z,27.87
2019-03-30T11:10:56.850Z,29.91
2019-03-30T11:13:28.148Z,28.03
2019-03-30T11:15:59.337Z,29.99
2019-03-30T11:18:30.541Z,31.06
2019-03-30T11:21:01.885Z,29.94
2019-03-30T11:23:33.354Z,29.53
2019-03-30T11:26:04.638Z,33.38
2019-03-30T11:28:35.899Z,32.03
2019-03-30T11:31:07.175Z,31.13
2019-03-30T11:33:38.423Z,34.67
2019-03-30T11:36:09.794Z,32.37
2019-03-30T11:38:41.157Z,32.51
2019-03-30T11:41:12.429Z,30.80
2019-03-30T11:43:43.643Z,32.75
2019-03-30T11:46:14.883Z,32.96
2019-03-30T11:48:46.329Z,33.79
2019-03-30T11:51:17.718Z,33.11
2019-03-30T11:53:48.950Z,33.68
2019-03-30T11:56:20.207Z,32.97
2019-03-30T11:58:51.739Z,33.66
2019-03-30T12:01:23.277Z,34.02
2019-03-30T12:03:54.553Z,36.99
2019-03-30T12:06:25.936Z,33.79
2019-03-30T12:08:58.427Z,34.70
2019-03-30T12:11:30.113Z,35.29
2019-03-30T12:14:01.629Z,34.76
2019-03-30T12:16:32.963Z,33.19
2019-03-30T12:19:04.518Z,32.86
2019-03-30T12:21:35.790Z,33.36
2019-03-30T12:24:07.085Z,34.69
2019-03-30T12:26:38.413Z,34.77
2019-03-30T12:29:09.766Z,34.71
2019-03-30T12:31:40.864Z,34.38
2019-03-30T12:34:13.189Z,34.31
2019-03-30T12:36:44.564Z,35.98
2019-03-30T12:39:15.755Z,34.52
2019-03-30T12:41:47.196Z,33.54
2019-03-30T12:44:18.538Z,34.00
2019-03-30T12:46:49.850Z,34.78
2019-03-30T12:49:23.226Z,35.71
2019-03-30T12:51:54.440Z,37.14
2019-03-30T12:54:25.542Z,35.77
2019-03-30T12:56:57.084Z,36.38
2019-03-30T12:59:30.252Z,35.46
2019-03-30T13:02:01.448Z,35.27
2019-03-30T13:04:32.614Z,35.60
2019-03-30T13:07:03.810Z,35.32
2019-03-30T13:09:35.308Z,35.37
2019-03-30T13:12:06.704Z,36.35
2019-03-30T13:14:37.784Z,35.68
2019-03-30T13:17:09.144Z,35.80
2019-03-30T13:19:40.688Z,36.52
2019-03-30T13:22:12.105Z,34.97
2019-03-30T13:24:43.355Z,35.39
2019-03-30T13:27:15.242Z,36.95
2019-03-30T13:29:46.363Z,34.99
2019-03-30T13:32:17.779Z,36.51
2019-03-30T13:34:49.055Z,35.43
2019-03-30T13:37:22.257Z,35.65
2019-03-30T13:39:53.365Z,36.39
2019-03-30T13:42:24.480Z,37.55
2019-03-30T13:44:55.678Z,37.58
2019-03-30T13:47:27.017Z,36.56
2019-03-30T13:49:58.625Z,37.12
2019-03-30T13:52:29.782Z,38.33
2019-03-30T13:55:01.041Z,39.11
2019-03-30T13:57:32.168Z,38.23
2019-03-30T14:00:03.411Z,38.78
2019-03-30T14:02:34.534Z,38.17
2019-03-30T14:05:06.710Z,39.25
2019-03-30T14:07:38.074Z,38.58
2019-03-30T14:10:10.688Z,38.21
2019-03-30T14:12:41.931Z,38.96
2019-03-30T14:15:13.308Z,37.44
2019-03-30T14:17:44.516Z,37.89
2019-03-30T14:20:15.929Z,38.11
2019-03-30T14:22:47.098Z,38.10
2019-03-30T14:25:18.651Z,38.78
2019-03-30T14:27:49.832Z,38.81
2019-03-30T14:30:21.171Z,38.95
2019-03-30T14:32:52.466Z,37.69
2019-03-30T14:35:23.601Z,40.26
2019-03-30T14:37:55.776Z,38.84
2019-03-30T14:40:27.094Z,39.09
2019-03-30T14:42:58.470Z,37.61
2019-03-30T14:45:29.689Z,38.44
2019-03-30T14:48:00.985Z,39.09
2019-03-30T14:50:32.259Z,38.20
2019-03-30T14:53:03.442Z,39.20
2019-03-30T14:55:34.833Z,38.56
2019-03-30T14:58:06.104Z,39.33
2019-03-30T15:00:37.576Z,41.04
2019-03-30T15:03:09.119Z,40.04
2019-03-30T15:05:40.340Z,39.96
2019-03-30T15:08:11.668Z,39.20
2019-03-30T15:10:42.917Z,39.46
2019-03-30T15:13:14.271Z,40.27
2019-03-30T15:15:45.674Z,38.92
2019-03-30T15:18:17.019Z,38.91
2019-03-30T15:20:48.378Z,39.37
2019-03-30T15:23:19.590Z,38.06
2019-03-30T15:25:50.804Z,38.47
2019-03-30T15:28:22.034Z,39.16
2019-03-30T15:30:53.336Z,38.41
2019-03-30T15:33:24.537Z,39.47
2019-03-30T15:35:55.683Z,40.91
2019-03-30T15:38:26.798Z,41.10
2019-03-30T15:40:57.905Z,41.02
2019-03-30T15:43:38.247Z,40.95
2019-03-30T15:46:02.165Z,39.75
2019-03-30T15:48:33.390Z,42.51
2019-03-30T15:51:04.762Z,40.21
2019-03-30T15:53:36.228Z,40.30
2019-03-30T15:56:07.581Z,41.09
2019-03-30T15:58:39.839Z,40.93
2019-03-30T16:01:11.274Z,40.25
2019-03-30T16:03:42.462Z,41.29
2019-03-30T16:06:13.727Z,41.05
2019-03-30T16:08:44.908Z,40.87
2019-03-30T16:11:16.213Z,41.66
2019-03-30T16:13:47.512Z,41.10
2019-03-30T16:16:18.800Z,41.93
2019-03-30T16:18:50.272Z,42.74
2019-03-30T16:21:21.597Z,43.39
2019-03-30T16:23:52.895Z,42.98
2019-03-30T16:26:24.259Z,42.89
2019-03-30T16:28:55.380Z,43.82
2019-03-30T16:31:27.144Z,43.21
2019-03-30T16:33:58.439Z,44.58
2019-03-30T16:36:29.699Z,43.90
2019-03-30T16:39:01.042Z,46.29
2019-03-30T16:41:32.124Z,46.06
2019-03-30T16:44:03.474Z,47.36
2019-03-30T16:46:34.599Z,47.53
2019-03-30T16:49:05.768Z,48.38
2019-03-30T16:51:36.886Z,48.62
2019-03-30T16:54:08.360Z,48.90
2019-03-30T16:56:39.508Z,47.54
2019-03-30T16:59:13.737Z,49.50
2019-03-30T17:01:43.899Z,49.04
2019-03-30T17:04:15.058Z,49.16
2019-03-30T17:06:46.230Z,49.51
2019-03-30T17:09:17.362Z,49.80
2019-03-30T17:11:48.515Z,49.93
2019-03-30T17:14:19.738Z,49.90
2019-03-30T17:16:50.887Z,50.21
2019-03-30T17:19:22.038Z,50.68
2019-03-30T17:21:53.209Z,50.86
2019-03-30T17:24:24.389Z,51.00
2019-03-30T17:26:55.508Z,51.21
2019-03-30T17:29:26.790Z,51.36
2019-03-30T17:31:57.988Z,51.62
2019-03-30T17:34:29.604Z,51.96
2019-03-30T17:37:00.790Z,52.12
2019-03-30T17:39:31.970Z,52.40
2019-03-30T17:42:03.160Z,52.65
2019-03-30T17:44:34.636Z,52.66
2019-03-30T17:47:05.874Z,53.04
2019-03-30T17:49:37.067Z,53.37
2019-03-30T17:52:08.491Z,53.82
2019-03-30T17:54:40.087Z,54.15
2019-03-30T17:57:11.574Z,54.33
2019-03-30T17:59:42.695Z,55.00
2019-03-30T18:02:13.908Z,55.28
2019-03-30T18:04:44.974Z,55.29
2019-03-30T18:07:16.235Z,55.47
2019-03-30T18:09:47.419Z,55.94
2019-03-30T18:12:20.439Z,56.04
2019-03-30T18:14:51.928Z,56.15
2019-03-30T18:17:23.224Z,56.27
2019-03-30T18:19:56.154Z,56.31
2019-03-30T18:22:27.485Z,56.52
2019-03-30T18:24:58.683Z,56.66
2019-03-30T18:27:30.025Z,56.80
2019-03-30T18:30:04.699Z,56.82
2019-03-30T18:32:36.495Z,56.62
2019-03-30T18:35:13.034Z,57.03
2019-03-30T18:37:57.430Z,57.06
2019-03-30T18:40:32.755Z,57.63
2019-03-30T18:43:07.034Z,58.05
2019-03-30T18:45:38.620Z,58.41
2019-03-30T18:48:19.686Z,58.78
2019-03-30T18:50:53.974Z,58.77
2019-03-30T18:53:27.679Z,58.71
2019-03-30T18:55:59.062Z,59.34
2019-03-30T18:58:41.599Z,59.67
2019-03-30T19:01:06.370Z,59.78
2019-03-30T19:03:41.836Z,60.40
2019-03-30T19:06:22.931Z,60.92
2019-03-30T19:08:55.448Z,61.65
2019-03-30T19:11:28.939Z,62.07
2019-03-30T19:14:02.477Z,62.44
2019-03-30T19:16:33.800Z,62.67
2019-03-30T19:19:05.540Z,62.37
2019-03-30T19:21:37.159Z,61.94
2019-03-30T19:24:09.565Z,61.04
2019-03-30T19:26:48.245Z,60.34
2019-03-30T19:29:19.545Z,60.38
2019-03-30T19:31:55.005Z,60.93
2019-03-30T19:34:26.462Z,60.68
2019-03-30T19:37:01.358Z,60.29
2019-03-30T19:39:33.157Z,59.69
2019-03-30T19:42:05.694Z,59.33
2019-03-30T19:44:48.735Z,59.42
2019-03-30T19:47:22.474Z,58.33
2019-03-30T19:49:58.580Z,60.13
2019-03-30T19:52:39.863Z,61.06
2019-03-30T19:55:05.159Z,60.56
2019-03-30T19:57:44.644Z,58.81
2019-03-30T20:00:22.640Z,59.41
2019-03-30T20:02:58.529Z,60.58
2019-03-30T20:05:33.485Z,59.44
2019-03-30T20:08:13.113Z,59.22
2019-03-30T20:10:56.319Z,59.61
2019-03-30T20:13:30.345Z,59.00
2019-03-30T20:16:04.539Z,58.54
2019-03-30T20:18:37.134Z,58.58
2019-03-30T20:21:18.239Z,59.09
2019-03-30T20:23:50.865Z,59.51
2019-03-30T20:26:23.813Z,60.41
2019-03-30T20:29:01.968Z,60.02
2019-03-30T20:31:38.154Z,60.59
2019-03-30T20:34:10.237Z,61.04
2019-03-30T20:36:44.039Z,61.47
2019-03-30T20:39:16.384Z,61.95
2019-03-30T20:41:49.769Z,62.39
2019-03-30T20:44:27.144Z,62.48
2019-03-30T20:47:02.176Z,62.27
2019-03-30T20:49:37.036Z,62.29
2019-03-30T20:52:23.229Z,62.67
2019-03-30T20:54:55.100Z,62.96
2019-03-30T20:57:27.308Z,63.03
2019-03-30T21:00:02.804Z,63.77
2019-03-30T21:02:41.175Z,64.21
2019-03-30T21:05:18.016Z,64.56
2019-03-30T21:07:50.574Z,64.51
2019-03-30T21:10:25.357Z,65.32
2019-03-30T21:12:56.614Z,65.84
2019-03-30T21:15:27.979Z,67.24
2019-03-30T21:18:09.258Z,67.74
2019-03-30T21:20:47.458Z,67.77
2019-03-30T21:23:20.319Z,68.24
2019-03-30T21:25:55.454Z,68.52
2019-03-30T21:28:29.397Z,69.27
2019-03-30T21:31:01.189Z,69.82
2019-03-30T21:33:38.619Z,71.20
2019-03-30T21:36:09.854Z,72.62
2019-03-30T21:38:47.379Z,74.27
2019-03-30T21:41:21.324Z,74.85
2019-03-30T21:43:55.654Z,74.98
2019-03-30T21:46:28.604Z,74.99
2019-03-30T21:48:59.850Z,75.03
2019-03-30T21:51:31.070Z,74.96
2019-03-30T21:54:02.391Z,74.97
2019-03-30T21:56:35.098Z,75.56
2019-03-30T21:59:06.494Z,76.51
2019-03-30T22:01:37.669Z,77.00
2019-03-30T22:04:08.951Z,77.66
2019-03-30T22:06:40.229Z,77.99
2019-03-30T22:09:12.219Z,77.77
2019-03-30T22:11:43.386Z,77.89
2019-03-30T22:14:14.718Z,78.06
2019-03-30T22:16:46.014Z,76.94
2019-03-30T22:19:17.208Z,77.35
2019-03-30T22:21:48.432Z,77.73
2019-03-30T22:24:19.595Z,77.49
2019-03-30T22:26:50.814Z,77.24
2019-03-30T22:29:22.065Z,77.38
2019-03-30T22:31:53.198Z,76.29
2019-03-30T22:34:24.488Z,75.85
2019-03-30T22:36:55.605Z,75.62
2019-03-30T22:39:26.963Z,75.02
2019-03-30T22:41:58.178Z,74.02
2019-03-30T22:44:29.438Z,73.45
2019-03-30T22:47:00.533Z,73.25
2019-03-30T22:49:31.651Z,73.14
2019-03-30T22:52:02.829Z,72.32
2019-03-30T22:54:33.990Z,71.74
2019-03-30T22:57:05.338Z,71.64
2019-03-30T22:59:36.549Z,71.07
2019-03-30T23:02:08.264Z,71.35
2019-03-30T23:04:39.828Z,71.19
2019-03-30T23:07:11.080Z,71.30
2019-03-30T23:09:42.302Z,71.12
2019-03-30T23:12:13.564Z,71.27
2019-03-30T23:14:44.801Z,71.56
2019-03-30T23:17:16.058Z,72.05
2019-03-30T23:19:47.285Z,72.09
2019-03-30T23:22:18.635Z,71.82
2019-03-30T23:24:49.774Z,72.20
2019-03-30T23:27:20.910Z,72.54
2019-03-30T23:29:52.114Z,72.68
2019-03-30T23:32:23.320Z,73.52
2019-03-30T23:34:54.520Z,74.56
2019-03-30T23:37:25.805Z,75.07
2019-03-30T23:39:57.184Z,75.10
2019-03-30T23:42:28.396Z,75.05
2019-03-30T23:44:59.638Z,75.55
2019-03-30T23:47:30.863Z,75.93
2019-03-30T23:50:01.919Z,76.94
2019-03-30T23:52:33.074Z,76.73
2019-03-30T23:55:04.329Z,77.51
2019-03-30T23:57:35.588Z,78.53
